createdAt,value
2018-04-30T00:05:20.948Z,126.40
2018-04-30T00:11:24.461Z,125.77
2018-04-30T00:17:27.952Z,123.53
2018-04-30T00:23:31.358Z,119.77
2018-04-30T00:29:34.934Z,118.93
2018-04-30T00:35:39.178Z,113.93
2018-04-30T00:41:42.754Z,117.33
2018-04-30T00:47:47.023Z,112.37
2018-04-30T00:53:50.415Z,112.40
2018-04-30T00:59:53.843Z,111.47
2018-04-30T01:05:57.269Z,112.83
2018-04-30T01:12:01.527Z,109.37
2018-04-30T01:18:05.093Z,109.03
2018-04-30T01:24:09.392Z,110.67
2018-04-30T01:30:13.020Z,106.27
2018-04-30T01:36:17.221Z,102.33
2018-04-30T01:42:20.682Z,102.77
2018-04-30T01:48:24.084Z,98.30
2018-04-30T01:54:28.377Z,99.93
2018-04-30T02:00:31.999Z,97.00
2018-04-30T02:06:35.506Z,97.20
2018-04-30T02:12:39.013Z,94.83
2018-04-30T02:18:43.153Z,90.67
2018-04-30T02:24:46.729Z,94.20
2018-04-30T02:30:50.107Z,95.93
2018-04-30T02:36:53.547Z,90.43
2018-04-30T02:42:56.930Z,90.53
2018-04-30T02:49:00.436Z,87.77
2018-04-30T02:55:04.622Z,86.93
2018-04-30T03:01:08.042Z,82.17
2018-04-30T03:07:11.598Z,83.80
2018-04-30T03:13:15.147Z,83.20
2018-04-30T03:19:18.702Z,81.30
2018-04-30T03:25:22.968Z,80.33
2018-04-30T03:31:26.504Z,78.47
2018-04-30T03:37:30.074Z,77.50
2018-04-30T03:43:33.553Z,77.63
2018-04-30T03:49:37.100Z,80.17
2018-04-30T03:55:40.630Z,73.77
2018-04-30T04:02:01.960Z,72.97
2018-04-30T04:08:06.221Z,73.37
2018-04-30T04:14:09.678Z,68.47
2018-04-30T04:20:13.233Z,71.47
2018-04-30T04:26:17.500Z,66.80
2018-04-30T04:32:21.669Z,67.13
2018-04-30T04:38:25.935Z,65.97
2018-04-30T04:44:30.081Z,63.20
2018-04-30T04:50:33.567Z,62.30
2018-04-30T04:56:37.713Z,63.67
2018-04-30T05:02:41.272Z,60.60
2018-04-30T05:08:45.541Z,59.53
2018-04-30T05:14:49.725Z,61.53
2018-04-30T05:20:53.984Z,57.03
2018-04-30T05:26:58.190Z,58.83
2018-04-30T05:33:01.698Z,57.87
2018-04-30T05:39:06.994Z,56.27
2018-04-30T05:45:10.460Z,54.67
2018-04-30T05:51:14.708Z,53.23
2018-04-30T05:57:18.879Z,52.97
2018-04-30T06:03:22.351Z,51.63
2018-04-30T06:09:25.794Z,50.47
2018-04-30T06:15:30.357Z,53.30
2018-04-30T06:21:34.524Z,54.37
2018-04-30T06:27:38.651Z,54.13
2018-04-30T06:33:42.083Z,48.23
2018-04-30T06:39:45.471Z,50.83
2018-04-30T06:45:48.849Z,22.13
2018-04-30T06:51:53.001Z,17.20
2018-04-30T06:57:56.479Z,18.30
2018-04-30T07:03:59.862Z,17.90
2018-04-30T07:10:03.272Z,13.57
2018-04-30T07:16:06.804Z,16.07
2018-04-30T07:22:10.275Z,13.20
2018-04-30T07:28:13.805Z,10.97
2018-04-30T07:34:17.356Z,19.10
2018-04-30T07:40:20.826Z,17.73
2018-04-30T07:46:24.955Z,15.87
2018-04-30T07:52:28.344Z,15.77
2018-04-30T07:58:31.786Z,13.20
2018-04-30T08:04:35.963Z,12.07
2018-04-30T08:10:39.447Z,27.70
2018-04-30T08:16:42.996Z,32.37
2018-04-30T08:22:46.493Z,21.33
2018-04-30T08:28:50.619Z,19.60
2018-04-30T08:34:54.007Z,15.93
2018-04-30T08:40:58.164Z,17.10
2018-04-30T08:47:01.729Z,11.47
2018-04-30T08:53:05.980Z,11.30
2018-04-30T08:59:09.549Z,33.37
2018-04-30T09:05:13.074Z,22.03
2018-04-30T09:11:16.508Z,24.70
2018-04-30T09:17:19.968Z,26.47
2018-04-30T09:23:23.452Z,25.23
2018-04-30T09:29:26.976Z,21.30
2018-04-30T09:35:30.474Z,17.43
2018-04-30T09:41:33.928Z,189.93
2018-04-30T09:47:37.395Z,200.47
2018-04-30T09:53:40.907Z,128.73
2018-04-30T09:59:44.434Z,110.77
2018-04-30T10:05:47.840Z,66.00
2018-04-30T10:11:52.075Z,27.73
2018-04-30T10:17:55.558Z,23.37
2018-04-30T10:23:59.136Z,19.83
2018-04-30T10:30:02.545Z,21.90
2018-04-30T10:36:05.972Z,19.67
2018-04-30T10:42:09.379Z,17.40
2018-04-30T10:48:13.613Z,23.47
2018-04-30T10:54:17.078Z,18.27
2018-04-30T11:00:20.736Z,16.20
2018-04-30T11:06:25.003Z,55.17
2018-04-30T11:12:29.381Z,168.73
2018-04-30T11:18:32.928Z,194.13
2018-04-30T11:24:36.394Z,172.50
2018-04-30T11:30:40.653Z,140.20
2018-04-30T11:36:44.094Z,130.67
2018-04-30T11:42:48.288Z,115.63
2018-04-30T11:48:51.859Z,163.93
2018-04-30T11:54:55.374Z,230.30
2018-04-30T12:00:59.570Z,222.63
2018-04-30T12:07:03.028Z,199.33
2018-04-30T12:13:06.459Z,188.20
2018-04-30T12:19:09.902Z,174.17
2018-04-30T12:25:13.363Z,166.97
2018-04-30T12:31:16.829Z,150.73
2018-04-30T12:37:20.245Z,149.20
2018-04-30T12:43:25.064Z,133.07
2018-04-30T12:49:28.732Z,115.50
2018-04-30T12:55:32.226Z,107.90
2018-04-30T13:01:36.395Z,108.60
2018-04-30T13:07:40.666Z,104.37
2018-04-30T13:13:44.194Z,173.87
2018-04-30T13:19:47.581Z,95.83
2018-04-30T13:25:50.970Z,189.33
2018-04-30T13:31:54.462Z,221.23
2018-04-30T13:37:58.651Z,129.37
2018-04-30T13:44:02.906Z,275.30
2018-04-30T13:50:07.167Z,331.77
2018-04-30T13:56:11.363Z,324.43
2018-04-30T14:02:15.530Z,210.50
2018-04-30T14:08:19.764Z,226.80
2018-04-30T14:14:23.232Z,201.50
2018-04-30T14:20:27.421Z,169.40
2018-04-30T14:26:30.809Z,155.00
2018-04-30T14:32:34.404Z,130.83
2018-04-30T14:38:38.670Z,117.13
2018-04-30T14:44:42.940Z,112.23
2018-04-30T14:50:47.127Z,125.70
2018-04-30T14:56:50.579Z,109.07
2018-04-30T15:02:54.720Z,113.23
2018-04-30T15:08:58.907Z,104.50
2018-04-30T15:15:02.287Z,84.27
2018-04-30T15:21:05.868Z,80.53
2018-04-30T15:27:09.441Z,73.90
2018-04-30T15:33:12.892Z,104.23
2018-04-30T15:39:16.379Z,63.33
2018-04-30T15:45:19.909Z,67.00
2018-04-30T15:51:24.095Z,69.97
2018-04-30T15:57:28.219Z,73.77
2018-04-30T16:03:31.694Z,68.33
2018-04-30T16:09:35.253Z,67.90
2018-04-30T16:15:38.639Z,71.93
2018-04-30T16:21:42.143Z,64.33
2018-04-30T16:27:45.525Z,60.83
2018-04-30T16:33:48.928Z,63.37
2018-04-30T16:39:53.126Z,64.20
2018-04-30T16:45:57.256Z,47.40
2018-04-30T16:52:00.645Z,53.63
2018-04-30T16:58:04.834Z,47.77
2018-04-30T17:04:08.258Z,43.83
2018-04-30T17:10:12.435Z,29.37
2018-04-30T17:16:16.610Z,39.00
2018-04-30T17:22:20.059Z,45.13
2018-04-30T17:28:24.229Z,45.47
2018-04-30T17:34:27.669Z,46.47
2018-04-30T17:40:31.879Z,42.47
2018-04-30T17:46:35.379Z,41.30
2018-04-30T17:52:39.643Z,39.50
2018-04-30T17:58:43.925Z,36.97
2018-04-30T18:04:47.464Z,35.33
2018-04-30T18:10:51.585Z,32.93
2018-04-30T18:16:54.972Z,32.03
2018-04-30T18:22:58.356Z,29.30
2018-04-30T18:29:01.881Z,29.20
2018-04-30T18:35:06.067Z,26.17
2018-04-30T18:41:09.596Z,25.60
2018-04-30T18:47:13.769Z,22.20
2018-04-30T18:53:17.966Z,22.00
2018-04-30T18:59:21.379Z,21.53
2018-04-30T19:05:25.540Z,20.97
2018-04-30T19:11:29.050Z,18.63
2018-04-30T19:17:32.568Z,17.50
2018-04-30T19:23:36.831Z,16.90
2018-04-30T19:29:41.069Z,15.63
2018-04-30T19:35:44.645Z,14.37
2018-04-30T19:41:48.766Z,14.70
2018-04-30T19:47:52.278Z,13.80
2018-04-30T19:53:56.485Z,14.60
2018-04-30T20:00:00.694Z,14.60
2018-04-30T20:06:04.134Z,12.50
2018-04-30T20:12:07.709Z,12.83
2018-04-30T20:18:12.996Z,11.33
2018-04-30T20:24:17.155Z,11.10
2018-04-30T20:30:20.690Z,10.40
2018-04-30T20:36:24.277Z,9.10
2018-04-30T20:42:28.462Z,8.97
2018-04-30T20:48:31.992Z,8.67
2018-04-30T20:54:35.544Z,8.10
2018-04-30T21:00:39.203Z,7.30
2018-04-30T21:06:43.391Z,7.53
2018-04-30T21:12:46.886Z,6.57
2018-04-30T21:18:50.376Z,6.70
2018-04-30T21:24:54.555Z,6.20
2018-04-30T21:30:58.672Z,5.67
2018-04-30T21:37:02.538Z,5.93
2018-04-30T21:43:08.105Z,4.97
2018-04-30T21:49:11.530Z,4.90
2018-04-30T21:55:15.781Z,4.73
2018-04-30T22:01:19.238Z,4.93
2018-04-30T22:07:23.430Z,4.30
2018-04-30T22:13:26.853Z,4.43
2018-04-30T22:19:31.112Z,4.20
2018-04-30T22:25:34.575Z,3.90
2018-04-30T22:31:38.737Z,3.70
2018-04-30T22:37:43.333Z,4.30
2018-04-30T22:43:47.581Z,10.13
2018-04-30T22:49:51.882Z,106.03
2018-04-30T22:55:55.377Z,178.90
2018-04-30T23:01:58.955Z,226.23
2018-04-30T23:08:03.555Z,327.57
2018-04-30T23:14:07.048Z,223.10
2018-04-30T23:20:10.499Z,160.50
2018-04-30T23:26:13.910Z,119.63
2018-04-30T23:32:17.305Z,75.33
2018-04-30T23:38:20.748Z,68.53
2018-04-30T23:44:24.229Z,57.93
2018-04-30T23:50:27.698Z,43.70
2018-04-30T23:56:32.045Z,30.03
